EXS22JM EGGP-LERS

Flight info

Callsign EXS22JM
Flight time 2h 15m
Altitude 35000
Route NANTI L8 STAFA P18 TELBA L151 KIDLI UN859 SOPIL DCT BALAN DCT EVPOK DCT NARAK DCT GAI DCT LOMRA DCT ROCAN DCT PUMAL N31 BERGA
Aircraft B738/M-SDE2E3FGHIRWXY/LB1

Departure

Time 2026-04-13 15:43
Airport Liverpool John Lennon Airport (EGGP)

Arrival

Time 2026-04-13 17:58
Airport Reus Airport (LERS)
Time Latitude Longitude Altitude Speed Heading
2026-04-13 15:21 53.33632 -2.85184 86 ft 0 kts 266°
2026-04-13 15:34 53.33633 -2.85161 88 ft 3 kts 261°
2026-04-13 15:34 53.33637 -2.85128 88 ft 3 kts 248°
2026-04-13 15:34 53.33646 -2.85099 87 ft 3 kts 228°
2026-04-13 15:34 53.33661 -2.85079 89 ft 3 kts 194°
2026-04-13 15:35 53.33670 -2.85076 87 ft 0 kts 175°
2026-04-13 15:38 53.33655 -2.85074 89 ft 7 kts 175°
2026-04-13 15:38 53.33597 -2.85067 84 ft 8 kts 175°
2026-04-13 15:38 53.33540 -2.85052 84 ft 8 kts 152°
2026-04-13 15:38 53.33530 -2.84964 85 ft 8 kts 86°
2026-04-13 15:39 53.33534 -2.84861 83 ft 11 kts 85°
2026-04-13 15:39 53.33542 -2.84691 79 ft 17 kts 85°
2026-04-13 15:39 53.33551 -2.84489 77 ft 18 kts 86°
2026-04-13 15:39 53.33561 -2.84270 74 ft 19 kts 85°
2026-04-13 15:40 53.33571 -2.84057 70 ft 18 kts 85°
2026-04-13 15:40 53.33580 -2.83851 76 ft 17 kts 85°
2026-04-13 15:40 53.33590 -2.83652 81 ft 17 kts 85°
2026-04-13 15:40 53.33599 -2.83461 89 ft 16 kts 85°
2026-04-13 15:41 53.33556 -2.83312 87 ft 11 kts 152°
2026-04-13 15:41 53.33532 -2.83301 86 ft 0 kts 172°
2026-04-13 15:42 53.33487 -2.83290 85 ft 11 kts 172°
2026-04-13 15:42 53.33438 -2.83381 85 ft 12 kts 267°
2026-04-13 15:42 53.33419 -2.83785 76 ft 75 kts 265°
2026-04-13 15:43 53.33357 -2.85137 83 ft 155 kts 265°
2026-04-13 15:43 53.33249 -2.87146 684 ft 181 kts 264°
2026-04-13 15:43 53.33101 -2.89406 1434 ft 204 kts 264°
2026-04-13 15:43 53.32925 -2.91737 2195 ft 204 kts 255°
2026-04-13 15:44 53.32072 -2.93720 2448 ft 227 kts 211°
2026-04-13 15:44 53.30507 -2.94217 2907 ft 238 kts 169°
2026-04-13 15:44 53.29084 -2.92854 3516 ft 242 kts 130°
2026-04-13 15:44 53.28246 -2.90407 3988 ft 245 kts 117°
2026-04-13 15:45 53.27446 -2.87909 3999 ft 254 kts 120°
2026-04-13 15:45 53.26496 -2.85315 4021 ft 265 kts 123°
2026-04-13 15:45 53.25450 -2.82763 4353 ft 263 kts 126°
2026-04-13 15:45 53.24381 -2.80303 4736 ft 268 kts 127°
2026-04-13 15:46 53.23261 -2.77786 5126 ft 271 kts 127°
2026-04-13 15:46 53.22130 -2.75266 5503 ft 272 kts 127°
2026-04-13 15:46 53.20995 -2.72755 5872 ft 272 kts 127°
2026-04-13 15:46 53.19849 -2.70229 6269 ft 271 kts 127°
2026-04-13 15:47 53.18710 -2.67719 6757 ft 274 kts 127°
2026-04-13 15:47 53.17547 -2.65155 7245 ft 280 kts 127°
2026-04-13 15:47 53.16366 -2.62559 7721 ft 281 kts 127°
2026-04-13 15:47 53.15184 -2.59962 8193 ft 281 kts 127°
2026-04-13 15:48 53.13996 -2.57367 8669 ft 282 kts 129°
2026-04-13 15:48 53.12479 -2.55362 9096 ft 282 kts 159°
2026-04-13 15:48 53.10610 -2.54359 9613 ft 282 kts 164°
2026-04-13 15:48 53.08714 -2.53438 10099 ft 286 kts 164°
2026-04-13 15:49 53.06817 -2.52516 10569 ft 289 kts 164°
2026-04-13 15:49 53.04873 -2.51557 11063 ft 292 kts 163°
2026-04-13 15:49 53.02911 -2.50574 11532 ft 295 kts 163°
2026-04-13 15:49 53.00941 -2.49577 12010 ft 297 kts 163°
2026-04-13 15:50 52.98956 -2.48566 12484 ft 299 kts 163°
2026-04-13 15:50 52.96958 -2.47543 12964 ft 301 kts 163°
2026-04-13 15:50 52.94946 -2.46510 13433 ft 302 kts 163°
2026-04-13 15:50 52.92926 -2.45472 13914 ft 304 kts 163°
2026-04-13 15:51 52.90902 -2.44432 14390 ft 306 kts 163°
2026-04-13 15:51 52.88868 -2.43387 14857 ft 307 kts 163°
2026-04-13 15:51 52.86817 -2.42334 15340 ft 309 kts 163°
2026-04-13 15:51 52.84756 -2.41276 15810 ft 311 kts 163°
2026-04-13 15:52 52.82679 -2.40212 16295 ft 313 kts 163°
2026-04-13 15:52 52.80613 -2.39154 16766 ft 316 kts 163°
2026-04-13 15:52 52.78510 -2.38077 17236 ft 318 kts 163°
2026-04-13 15:52 52.76388 -2.36992 17724 ft 320 kts 163°
2026-04-13 15:53 52.74255 -2.35903 18206 ft 323 kts 163°
2026-04-13 15:53 52.72100 -2.34803 18674 ft 325 kts 163°
2026-04-13 15:53 52.69928 -2.33697 19153 ft 328 kts 163°
2026-04-13 15:53 52.67744 -2.32583 19630 ft 330 kts 162°
2026-04-13 15:54 52.65616 -2.31100 20091 ft 333 kts 150°
2026-04-13 15:54 52.63659 -2.29041 20589 ft 335 kts 146°
2026-04-13 15:54 52.61715 -2.26871 21059 ft 338 kts 146°
2026-04-13 15:54 52.59765 -2.24683 21539 ft 341 kts 146°
2026-04-13 15:55 52.57819 -2.22511 22011 ft 343 kts 146°
2026-04-13 15:55 52.55833 -2.20311 22476 ft 346 kts 146°
2026-04-13 15:55 52.53828 -2.18102 22966 ft 348 kts 146°
2026-04-13 15:55 52.51805 -2.15883 23443 ft 351 kts 146°
2026-04-13 15:56 52.49766 -2.13651 23919 ft 353 kts 146°
2026-04-13 15:56 52.47706 -2.11400 24396 ft 356 kts 147°
2026-04-13 15:56 52.45636 -2.09142 24877 ft 358 kts 147°
2026-04-13 15:56 52.43560 -2.06880 25346 ft 360 kts 147°
2026-04-13 15:57 52.41496 -2.04634 25819 ft 361 kts 147°
2026-04-13 15:57 52.39398 -2.02352 26287 ft 362 kts 147°
2026-04-13 15:57 52.37297 -2.00067 26758 ft 362 kts 147°
2026-04-13 15:57 52.35196 -1.97787 27232 ft 363 kts 147°
2026-04-13 15:58 52.33092 -1.95506 27698 ft 362 kts 147°
2026-04-13 15:58 52.30988 -1.93228 28169 ft 362 kts 147°
2026-04-13 15:58 52.28886 -1.90956 28604 ft 363 kts 147°
2026-04-13 15:58 52.26743 -1.88643 28656 ft 375 kts 147°
2026-04-13 15:59 52.24537 -1.86274 28745 ft 386 kts 147°
2026-04-13 15:59 52.22288 -1.83872 28819 ft 396 kts 147°
2026-04-13 15:59 52.19951 -1.81379 28892 ft 407 kts 147°
2026-04-13 15:59 52.17549 -1.78819 28966 ft 417 kts 147°
2026-04-13 16:00 52.12586 -1.73532 29089 ft 436 kts 147°
2026-04-13 16:00 52.07399 -1.68032 29189 ft 453 kts 147°
2026-04-13 16:01 52.02021 -1.62390 29391 ft 466 kts 147°
2026-04-13 16:01 52.00217 -1.60489 29605 ft 466 kts 147°
2026-04-13 16:01 51.96603 -1.56649 30188 ft 463 kts 147°
2026-04-13 16:02 51.94825 -1.54755 30482 ft 461 kts 147°
2026-04-13 16:02 51.92142 -1.51901 30849 ft 460 kts 147°
2026-04-13 16:02 51.88588 -1.48139 31270 ft 460 kts 147°
2026-04-13 16:02 51.85911 -1.45318 31618 ft 459 kts 147°
2026-04-13 16:03 51.84099 -1.43419 31862 ft 458 kts 147°
2026-04-13 16:03 51.81454 -1.40652 32196 ft 457 kts 147°
2026-04-13 16:03 51.78777 -1.37865 32512 ft 457 kts 148°
2026-04-13 16:03 51.75970 -1.35463 32799 ft 456 kts 158°
2026-04-13 16:04 51.72969 -1.33827 33108 ft 455 kts 164°
2026-04-13 16:04 51.69926 -1.32413 33409 ft 454 kts 164°
2026-04-13 16:04 51.66901 -1.30960 33692 ft 454 kts 163°
2026-04-13 16:04 51.63886 -1.29458 33980 ft 453 kts 163°
2026-04-13 16:05 51.60883 -1.27931 34267 ft 452 kts 162°
2026-04-13 16:05 51.57874 -1.26395 34530 ft 452 kts 162°
2026-04-13 16:05 51.54915 -1.24889 34770 ft 452 kts 162°
2026-04-13 16:05 51.51917 -1.23371 35004 ft 452 kts 162°
2026-04-13 16:06 51.45964 -1.19826 35013 ft 457 kts 155°
2026-04-13 16:06 51.40266 -1.15415 34982 ft 451 kts 155°
2026-04-13 16:07 51.34587 -1.11198 35010 ft 449 kts 155°
2026-04-13 16:07 51.28892 -1.07052 35015 ft 452 kts 155°
2026-04-13 16:08 51.23143 -1.02860 35012 ft 461 kts 155°
2026-04-13 16:08 51.17253 -0.98580 35008 ft 469 kts 155°
2026-04-13 16:09 51.11288 -0.94258 35006 ft 472 kts 156°
2026-04-13 16:09 51.05305 -0.89933 35002 ft 472 kts 156°
2026-04-13 16:10 50.99306 -0.85609 34997 ft 472 kts 156°
2026-04-13 16:10 50.93322 -0.81306 34994 ft 472 kts 156°
2026-04-13 16:11 50.87349 -0.77024 34996 ft 471 kts 156°
2026-04-13 16:11 50.81621 -0.72052 35013 ft 470 kts 147°
2026-04-13 16:12 50.76200 -0.66402 34998 ft 469 kts 146°
2026-04-13 16:12 50.70741 -0.60717 35003 ft 469 kts 147°
2026-04-13 16:13 50.65276 -0.55137 35000 ft 468 kts 147°
2026-04-13 16:13 50.59791 -0.49597 34995 ft 468 kts 147°
2026-04-13 16:14 50.54300 -0.44072 34999 ft 468 kts 147°
2026-04-13 16:14 50.48813 -0.38562 35005 ft 468 kts 147°
2026-04-13 16:15 50.43331 -0.33071 35000 ft 468 kts 148°
2026-04-13 16:15 50.37843 -0.27588 34997 ft 468 kts 148°
2026-04-13 16:16 50.32356 -0.22121 34998 ft 468 kts 148°
2026-04-13 16:16 50.26859 -0.16661 35000 ft 468 kts 148°
2026-04-13 16:17 50.21360 -0.11212 35003 ft 468 kts 148°
2026-04-13 16:17 50.15860 -0.05775 34999 ft 468 kts 148°
2026-04-13 16:18 50.10288 -0.00552 34984 ft 468 kts 155°
2026-04-13 16:18 50.04111 0.02512 35005 ft 467 kts 167°
2026-04-13 16:19 49.97825 0.04847 35004 ft 467 kts 167°
2026-04-13 16:19 49.91509 0.07256 34997 ft 467 kts 166°
2026-04-13 16:20 49.85195 0.09719 35001 ft 467 kts 166°
2026-04-13 16:20 49.78882 0.12186 34997 ft 467 kts 166°
2026-04-13 16:21 49.72573 0.14642 35008 ft 468 kts 166°
2026-04-13 16:21 49.66308 0.17083 34996 ft 468 kts 166°
2026-04-13 16:22 49.60010 0.19634 35004 ft 466 kts 165°
2026-04-13 16:23 49.50582 0.23470 34999 ft 466 kts 165°
2026-04-13 16:23 49.44313 0.25997 35006 ft 465 kts 165°
2026-04-13 16:24 49.38073 0.28504 35004 ft 466 kts 165°
2026-04-13 16:24 49.31792 0.31022 35003 ft 466 kts 166°
2026-04-13 16:25 49.25520 0.33607 35005 ft 467 kts 165°
2026-04-13 16:25 49.19255 0.36262 35002 ft 467 kts 165°
2026-04-13 16:26 49.13018 0.38893 35003 ft 468 kts 165°
2026-04-13 16:26 49.06734 0.41524 35005 ft 468 kts 165°
2026-04-13 16:27 49.00442 0.44147 35000 ft 469 kts 165°
2026-04-13 16:27 48.94150 0.46764 35000 ft 469 kts 165°
2026-04-13 16:28 48.87849 0.49379 34999 ft 469 kts 165°
2026-04-13 16:28 48.81542 0.51990 35001 ft 469 kts 165°
2026-04-13 16:29 48.75233 0.54551 35003 ft 469 kts 166°
2026-04-13 16:29 48.68906 0.57006 34997 ft 470 kts 166°
2026-04-13 16:30 48.62606 0.59449 35004 ft 470 kts 166°
2026-04-13 16:30 48.56274 0.61915 35003 ft 470 kts 166°
2026-04-13 16:31 48.49941 0.64391 35007 ft 469 kts 165°
2026-04-13 16:31 48.43629 0.66961 35004 ft 469 kts 165°
2026-04-13 16:32 48.37323 0.69538 35004 ft 469 kts 165°
2026-04-13 16:32 48.31057 0.72077 34996 ft 469 kts 165°
2026-04-13 16:33 48.24756 0.74618 35000 ft 469 kts 165°
2026-04-13 16:33 48.18431 0.77120 34998 ft 469 kts 165°
2026-04-13 16:34 48.12123 0.79593 35006 ft 468 kts 165°
2026-04-13 16:34 48.05817 0.82064 34999 ft 469 kts 165°
2026-04-13 16:35 47.99507 0.84535 35005 ft 468 kts 165°
2026-04-13 16:35 47.93203 0.86998 34997 ft 468 kts 165°
2026-04-13 16:36 47.86896 0.89456 34997 ft 468 kts 165°
2026-04-13 16:36 47.80628 0.91891 35001 ft 468 kts 166°
2026-04-13 16:37 47.74315 0.94331 35002 ft 468 kts 166°
2026-04-13 16:37 47.68000 0.96768 35005 ft 468 kts 166°
2026-04-13 16:38 47.61698 0.99194 34996 ft 468 kts 166°
2026-04-13 16:38 47.55389 1.01619 35003 ft 468 kts 166°
2026-04-13 16:39 47.49071 1.04040 35002 ft 468 kts 166°
2026-04-13 16:39 47.42731 1.06251 34987 ft 468 kts 173°
2026-04-13 16:40 47.36279 1.06420 35002 ft 467 kts 182°
2026-04-13 16:40 47.29770 1.06149 35006 ft 467 kts 181°
2026-04-13 16:41 47.23253 1.05954 35007 ft 467 kts 181°
2026-04-13 16:41 47.16749 1.05809 35001 ft 468 kts 181°
2026-04-13 16:42 47.10236 1.05669 35010 ft 468 kts 181°
2026-04-13 16:42 47.03731 1.05525 35005 ft 468 kts 181°
2026-04-13 16:43 46.97262 1.05310 34997 ft 468 kts 182°
2026-04-13 16:43 46.90755 1.05005 34999 ft 468 kts 182°
2026-04-13 16:44 46.84203 1.04704 35000 ft 468 kts 182°
2026-04-13 16:44 46.77739 1.04421 34998 ft 468 kts 182°
2026-04-13 16:45 46.71222 1.04141 35001 ft 468 kts 182°
2026-04-13 16:45 46.64704 1.03862 34999 ft 468 kts 182°
2026-04-13 16:46 46.58196 1.03582 35005 ft 468 kts 182°
2026-04-13 16:46 46.51681 1.03447 34990 ft 468 kts 176°
2026-04-13 16:47 46.45299 1.05223 35012 ft 468 kts 167°
2026-04-13 16:47 46.39012 1.07438 35004 ft 468 kts 167°
2026-04-13 16:48 46.32668 1.09621 35005 ft 469 kts 167°
2026-04-13 16:48 46.26311 1.11751 34996 ft 469 kts 167°
2026-04-13 16:49 46.19948 1.13860 35001 ft 469 kts 167°
2026-04-13 16:49 46.13577 1.15967 35001 ft 469 kts 167°
2026-04-13 16:50 46.08285 1.17716 35000 ft 469 kts 167°
2026-04-13 16:50 46.01914 1.19817 35006 ft 470 kts 167°
2026-04-13 16:51 45.95542 1.21914 35007 ft 470 kts 167°
2026-04-13 16:51 45.89161 1.24009 34996 ft 470 kts 167°
2026-04-13 16:52 45.82772 1.26101 35005 ft 470 kts 167°
2026-04-13 16:52 45.76434 1.28172 34998 ft 470 kts 167°
2026-04-13 16:53 45.70063 1.30249 35001 ft 470 kts 167°
2026-04-13 16:53 45.63674 1.32327 34995 ft 470 kts 167°
2026-04-13 16:54 45.57298 1.34396 34997 ft 470 kts 167°
2026-04-13 16:54 45.50912 1.36464 35004 ft 470 kts 167°
2026-04-13 16:55 45.44528 1.38526 35001 ft 470 kts 167°
2026-04-13 16:55 45.38138 1.40584 34997 ft 470 kts 167°
2026-04-13 16:56 45.31799 1.42623 34998 ft 470 kts 167°
2026-04-13 16:56 45.25420 1.44669 35007 ft 469 kts 167°
2026-04-13 16:57 45.19051 1.46709 35007 ft 469 kts 167°
2026-04-13 16:57 45.12677 1.48745 35005 ft 469 kts 167°
2026-04-13 16:58 45.06321 1.50771 34998 ft 468 kts 167°
2026-04-13 16:58 44.99960 1.52794 35004 ft 469 kts 167°
2026-04-13 16:59 44.93595 1.54813 35002 ft 469 kts 167°
2026-04-13 16:59 44.87263 1.56818 35001 ft 469 kts 167°
2026-04-13 17:00 44.80898 1.58828 35001 ft 469 kts 167°
2026-04-13 17:00 44.74535 1.60833 35008 ft 469 kts 167°
2026-04-13 17:01 44.68162 1.62837 34996 ft 469 kts 167°
2026-04-13 17:01 44.61789 1.64836 35003 ft 469 kts 167°
2026-04-13 17:02 44.55411 1.66833 34998 ft 470 kts 167°
2026-04-13 17:02 44.49029 1.68826 34997 ft 470 kts 167°
2026-04-13 17:03 44.42643 1.70817 34998 ft 469 kts 167°
2026-04-13 17:03 44.36265 1.72800 34996 ft 469 kts 167°
2026-04-13 17:04 44.29928 1.74765 35003 ft 469 kts 168°
2026-04-13 17:04 44.23492 1.76356 35000 ft 469 kts 172°
2026-04-13 17:05 44.17021 1.77694 35007 ft 469 kts 172°
2026-04-13 17:05 44.10564 1.79071 34996 ft 469 kts 171°
2026-04-13 17:06 44.04109 1.80488 35003 ft 470 kts 171°
2026-04-13 17:06 43.97648 1.81908 35005 ft 469 kts 171°
2026-04-13 17:07 43.91169 1.83023 35009 ft 469 kts 176°
2026-04-13 17:07 43.84699 1.83573 35001 ft 469 kts 177°
2026-04-13 17:08 43.78182 1.84100 35001 ft 469 kts 176°
2026-04-13 17:08 43.71675 1.84700 35001 ft 468 kts 176°
2026-04-13 17:09 43.65171 1.85332 35001 ft 468 kts 176°
2026-04-13 17:09 43.58666 1.85965 35003 ft 468 kts 176°
2026-04-13 17:10 43.52156 1.86594 35009 ft 468 kts 176°
2026-04-13 17:10 43.45647 1.87221 34998 ft 469 kts 176°
2026-04-13 17:11 43.39186 1.87841 35007 ft 469 kts 176°
2026-04-13 17:11 43.32676 1.88465 35004 ft 469 kts 176°
2026-04-13 17:12 43.26170 1.89091 35008 ft 468 kts 176°
2026-04-13 17:12 43.19811 1.89703 34795 ft 447 kts 176°
2026-04-13 17:12 43.16732 1.89998 34498 ft 441 kts 176°
2026-04-13 17:13 43.13679 1.90291 34074 ft 438 kts 176°
2026-04-13 17:13 43.10646 1.90581 33597 ft 435 kts 176°
2026-04-13 17:13 43.07640 1.90869 33099 ft 432 kts 176°
2026-04-13 17:13 43.04646 1.91155 32577 ft 429 kts 176°
2026-04-13 17:14 43.01679 1.91438 32050 ft 426 kts 176°
2026-04-13 17:14 42.98876 1.91705 31588 ft 423 kts 176°
2026-04-13 17:14 42.95944 1.91984 31861 ft 419 kts 179°
2026-04-13 17:14 42.93091 1.92259 31766 ft 405 kts 179°
2026-04-13 17:15 42.90302 1.92528 31338 ft 400 kts 179°
2026-04-13 17:15 42.87555 1.92790 30988 ft 393 kts 178°
2026-04-13 17:15 42.84826 1.93045 30448 ft 392 kts 178°
2026-04-13 17:15 42.82127 1.93299 30111 ft 385 kts 178°
2026-04-13 17:16 42.79464 1.93549 29608 ft 381 kts 180°
2026-04-13 17:16 42.76845 1.93800 29259 ft 372 kts 179°
2026-04-13 17:16 42.74265 1.94044 28574 ft 373 kts 179°
2026-04-13 17:16 42.71674 1.94287 28009 ft 371 kts 178°
2026-04-13 17:17 42.69090 1.94530 27370 ft 372 kts 179°
2026-04-13 17:17 42.66528 1.94813 26850 ft 368 kts 177°
2026-04-13 17:17 42.64039 1.95258 26472 ft 363 kts 175°
2026-04-13 17:17 42.61567 1.95772 26061 ft 357 kts 174°
2026-04-13 17:18 42.59117 1.96292 25575 ft 355 kts 174°
2026-04-13 17:18 42.56687 1.96799 25190 ft 350 kts 173°
2026-04-13 17:18 42.54296 1.97288 24834 ft 345 kts 173°
2026-04-13 17:18 42.51931 1.97766 24463 ft 341 kts 173°
2026-04-13 17:19 42.49577 1.98238 24011 ft 340 kts 173°
2026-04-13 17:19 42.47261 1.98702 23731 ft 334 kts 174°
2026-04-13 17:19 42.44977 1.99157 23366 ft 329 kts 173°
2026-04-13 17:19 42.42721 1.99605 22974 ft 325 kts 174°
2026-04-13 17:20 42.40496 2.00048 22668 ft 321 kts 174°
2026-04-13 17:20 42.38291 2.00485 22300 ft 319 kts 173°
2026-04-13 17:20 42.36108 2.00898 21926 ft 325 kts 175°
2026-04-13 17:20 42.33776 2.01215 21346 ft 344 kts 176°
2026-04-13 17:21 42.31374 2.01493 20912 ft 347 kts 176°
2026-04-13 17:21 42.28990 2.01767 20566 ft 339 kts 176°
2026-04-13 17:21 42.26659 2.02043 20212 ft 333 kts 176°
2026-04-13 17:21 42.24377 2.02319 19863 ft 326 kts 176°
2026-04-13 17:22 42.22137 2.02595 19551 ft 320 kts 177°
2026-04-13 17:22 42.19933 2.02865 19245 ft 316 kts 177°
2026-04-13 17:22 42.17770 2.02709 18886 ft 310 kts 199°
2026-04-13 17:22 42.15819 2.01468 18572 ft 316 kts 217°
2026-04-13 17:23 42.14099 1.99489 18253 ft 334 kts 224°
2026-04-13 17:23 42.12406 1.97322 17840 ft 334 kts 225°
2026-04-13 17:23 42.10755 1.95175 17479 ft 326 kts 225°
2026-04-13 17:23 42.09131 1.93075 17143 ft 319 kts 225°
2026-04-13 17:24 42.07567 1.91071 16827 ft 312 kts 225°
2026-04-13 17:24 42.06010 1.89092 16542 ft 304 kts 225°
2026-04-13 17:24 42.04475 1.87149 16233 ft 301 kts 224°
2026-04-13 17:24 42.02959 1.85236 15933 ft 298 kts 225°
2026-04-13 17:25 42.01442 1.83325 15647 ft 302 kts 225°
2026-04-13 17:25 41.99867 1.81341 15363 ft 317 kts 224°
2026-04-13 17:25 41.98248 1.79308 15031 ft 318 kts 224°
2026-04-13 17:25 41.96645 1.77298 14693 ft 312 kts 225°
2026-04-13 17:26 41.95022 1.75411 14375 ft 306 kts 219°
2026-04-13 17:26 41.93304 1.73747 14075 ft 301 kts 217°
2026-04-13 17:26 41.91618 1.72189 13784 ft 296 kts 217°
2026-04-13 17:26 41.89907 1.70608 13473 ft 294 kts 217°
2026-04-13 17:27 41.86565 1.67477 12890 ft 302 kts 217°
2026-04-13 17:27 41.84816 1.65821 12582 ft 312 kts 217°
2026-04-13 17:27 41.83055 1.64151 12243 ft 308 kts 217°
2026-04-13 17:28 41.81328 1.62512 11928 ft 300 kts 217°
2026-04-13 17:28 41.79638 1.60907 11632 ft 294 kts 217°
2026-04-13 17:28 41.77988 1.59340 11336 ft 288 kts 217°
2026-04-13 17:28 41.76364 1.57798 11107 ft 284 kts 217°
2026-04-13 17:29 41.74769 1.56286 10992 ft 278 kts 217°
2026-04-13 17:29 41.73130 1.54901 10840 ft 286 kts 203°
2026-04-13 17:29 41.71145 1.54256 10619 ft 298 kts 192°
2026-04-13 17:29 41.69081 1.53772 10337 ft 302 kts 191°
2026-04-13 17:30 41.67021 1.53284 10056 ft 298 kts 191°
2026-04-13 17:30 41.65030 1.52800 9794 ft 291 kts 192°
2026-04-13 17:30 41.63055 1.52310 9500 ft 286 kts 191°
2026-04-13 17:30 41.61093 1.51815 9244 ft 282 kts 192°
2026-04-13 17:31 41.59199 1.51334 9009 ft 281 kts 192°
2026-04-13 17:31 41.57264 1.50842 8778 ft 283 kts 191°
2026-04-13 17:31 41.55322 1.50353 8528 ft 285 kts 190°
2026-04-13 17:31 41.53346 1.50341 8270 ft 284 kts 171°
2026-04-13 17:32 41.51397 1.50814 8041 ft 284 kts 169°
2026-04-13 17:32 41.49456 1.51295 7781 ft 284 kts 169°
2026-04-13 17:32 41.47560 1.51985 7538 ft 282 kts 151°
2026-04-13 17:32 41.46081 1.53603 7303 ft 278 kts 124°
2026-04-13 17:33 41.45332 1.55921 7118 ft 271 kts 96°
2026-04-13 17:33 41.45227 1.58399 7067 ft 268 kts 88°
2026-04-13 17:33 41.45232 1.60899 7066 ft 271 kts 87°
2026-04-13 17:33 41.45236 1.63439 6835 ft 276 kts 92°
2026-04-13 17:34 41.43365 1.67767 6368 ft 281 kts 149°
2026-04-13 17:34 41.41599 1.68848 6154 ft 278 kts 160°
2026-04-13 17:34 41.39791 1.69725 6029 ft 273 kts 161°
2026-04-13 17:35 41.38041 1.70553 6010 ft 266 kts 161°
2026-04-13 17:35 41.36336 1.71354 5939 ft 254 kts 161°
2026-04-13 17:35 41.34677 1.72068 5715 ft 246 kts 173°
2026-04-13 17:35 41.33059 1.71770 5459 ft 232 kts 215°
2026-04-13 17:36 41.31958 1.70309 5284 ft 222 kts 242°
2026-04-13 17:36 41.31247 1.68498 5123 ft 220 kts 249°
2026-04-13 17:36 41.30611 1.66623 5077 ft 225 kts 249°
2026-04-13 17:36 41.30188 1.65355 5057 ft 226 kts 250°
2026-04-13 17:37 41.29555 1.63453 5019 ft 224 kts 249°
2026-04-13 17:37 41.28928 1.61576 5007 ft 220 kts 250°
2026-04-13 17:37 41.28308 1.59720 4950 ft 220 kts 249°
2026-04-13 17:37 41.27687 1.57869 5018 ft 219 kts 249°
2026-04-13 17:38 41.27060 1.56001 5015 ft 223 kts 249°
2026-04-13 17:38 41.26430 1.54129 5013 ft 221 kts 249°
2026-04-13 17:38 41.25808 1.52287 4919 ft 216 kts 249°
2026-04-13 17:38 41.25179 1.50418 4438 ft 226 kts 249°
2026-04-13 17:39 41.24528 1.48487 4007 ft 233 kts 249°
2026-04-13 17:39 41.23853 1.46490 3554 ft 239 kts 249°
2026-04-13 17:39 41.23164 1.44451 3119 ft 245 kts 249°
2026-04-13 17:39 41.22470 1.42402 2752 ft 244 kts 249°
2026-04-13 17:40 41.21782 1.40383 2522 ft 237 kts 249°
2026-04-13 17:40 41.21113 1.38416 2283 ft 230 kts 249°
2026-04-13 17:40 41.20500 1.36510 2105 ft 218 kts 252°
2026-04-13 17:40 41.19977 1.34704 2018 ft 198 kts 252°
2026-04-13 17:41 41.19507 1.33085 1997 ft 179 kts 252°
2026-04-13 17:41 41.19061 1.31551 2005 ft 177 kts 252°
2026-04-13 17:41 41.18613 1.30014 2026 ft 179 kts 253°
2026-04-13 17:41 41.18161 1.28462 1842 ft 181 kts 252°
2026-04-13 17:42 41.17705 1.26902 1613 ft 181 kts 252°
2026-04-13 17:42 41.17253 1.25352 1357 ft 179 kts 252°
2026-04-13 17:42 41.16805 1.23813 1140 ft 180 kts 252°
2026-04-13 17:42 41.16371 1.22329 923 ft 164 kts 251°
2026-04-13 17:43 41.15972 1.20970 663 ft 151 kts 250°
2026-04-13 17:43 41.15605 1.19745 472 ft 132 kts 252°
2026-04-13 17:43 41.15306 1.18680 305 ft 117 kts 252°
2026-04-13 17:43 41.14995 1.17598 686 ft 135 kts 251°
2026-04-13 17:44 41.14612 1.16242 940 ft 182 kts 252°
2026-04-13 17:44 41.14147 1.14548 1587 ft 206 kts 253°
2026-04-13 17:44 41.13634 1.12715 2416 ft 216 kts 254°
2026-04-13 17:44 41.13065 1.10865 3423 ft 218 kts 251°
2026-04-13 17:45 41.12065 1.09214 4164 ft 243 kts 221°
2026-04-13 17:45 41.10485 1.08367 4576 ft 249 kts 189°
2026-04-13 17:45 41.08770 1.08676 4922 ft 254 kts 157°
2026-04-13 17:45 41.07282 1.09902 5018 ft 254 kts 143°
2026-04-13 17:46 41.05861 1.11337 5026 ft 258 kts 142°
2026-04-13 17:46 41.04445 1.12792 5025 ft 258 kts 142°
2026-04-13 17:46 41.03007 1.14273 5022 ft 264 kts 142°
2026-04-13 17:46 41.01677 1.15907 5003 ft 259 kts 122°
2026-04-13 17:47 41.01070 1.18057 5021 ft 246 kts 90°
2026-04-13 17:47 41.01298 1.20247 5040 ft 240 kts 70°
2026-04-13 17:47 41.01799 1.22378 5033 ft 244 kts 68°
2026-04-13 17:47 41.02332 1.24528 5027 ft 246 kts 68°
2026-04-13 17:48 41.02864 1.26659 5019 ft 247 kts 68°
2026-04-13 17:48 41.03405 1.28822 5019 ft 247 kts 68°
2026-04-13 17:48 41.03944 1.30973 5014 ft 246 kts 68°
2026-04-13 17:48 41.04483 1.33113 5015 ft 244 kts 68°
2026-04-13 17:49 41.05016 1.35239 5012 ft 243 kts 68°
2026-04-13 17:49 41.05546 1.37356 5020 ft 241 kts 68°
2026-04-13 17:49 41.06074 1.39461 5017 ft 240 kts 68°
2026-04-13 17:49 41.06600 1.41564 5018 ft 240 kts 68°
2026-04-13 17:50 41.07219 1.43603 5004 ft 236 kts 51°
2026-04-13 17:50 41.08407 1.44971 5027 ft 225 kts 19°
2026-04-13 17:50 41.09890 1.45579 5029 ft 224 kts 11°
2026-04-13 17:50 41.11413 1.46064 5031 ft 225 kts 10°
2026-04-13 17:51 41.12925 1.46529 5032 ft 227 kts 10°
2026-04-13 17:51 41.14492 1.46990 4771 ft 235 kts
2026-04-13 17:51 41.16079 1.47458 4427 ft 230 kts
2026-04-13 17:51 41.17618 1.47856 4069 ft 220 kts 359°
2026-04-13 17:52 41.19063 1.47458 3736 ft 208 kts 336°
2026-04-13 17:52 41.20388 1.46754 3393 ft 201 kts 336°
2026-04-13 17:52 41.21630 1.45996 3050 ft 193 kts 321°
2026-04-13 17:52 41.22295 1.44538 2710 ft 188 kts 276°
2026-04-13 17:53 41.22185 1.43411 2567 ft 183 kts 256°
2026-04-13 17:53 41.21779 1.41284 2551 ft 175 kts 262°
2026-04-13 17:53 41.21436 1.39736 2542 ft 179 kts 254°
2026-04-13 17:53 41.21002 1.38184 2521 ft 180 kts 253°
2026-04-13 17:54 41.20556 1.36657 2544 ft 174 kts 253°
2026-04-13 17:54 41.20130 1.35206 2504 ft 164 kts 253°
2026-04-13 17:54 41.19720 1.33802 2507 ft 160 kts 253°
2026-04-13 17:54 41.19322 1.32442 2420 ft 161 kts 252°
2026-04-13 17:55 41.18923 1.31079 2256 ft 156 kts 254°
2026-04-13 17:55 41.18537 1.29755 2052 ft 152 kts 254°
2026-04-13 17:55 41.18162 1.28473 1896 ft 146 kts 253°
2026-04-13 17:55 41.17789 1.27192 1678 ft 148 kts 253°
2026-04-13 17:56 41.17418 1.25918 1451 ft 146 kts 252°
2026-04-13 17:56 41.17054 1.24672 1277 ft 144 kts 253°
2026-04-13 17:56 41.16694 1.23423 1081 ft 144 kts 252°
2026-04-13 17:56 41.16325 1.22198 920 ft 142 kts 251°
2026-04-13 17:57 41.15968 1.20975 726 ft 141 kts 252°
2026-04-13 17:57 41.15621 1.19749 513 ft 143 kts 251°
2026-04-13 17:57 41.15264 1.18533 321 ft 141 kts 252°
2026-04-13 17:57 41.14935 1.17380 241 ft 125 kts 253°
2026-04-13 17:58 41.14669 1.16474 241 ft 77 kts 249°
2026-04-13 17:58 41.14551 1.16070 241 ft 40 kts 249°
2026-04-13 17:58 41.14551 1.15909 241 ft 15 kts 332°
2026-04-13 17:58 41.14582 1.15893 241 ft 0 kts 339°
2026-04-13 18:00 41.14609 1.15879 240 ft 9 kts 339°
2026-04-13 18:00 41.14655 1.15831 240 ft 9 kts 277°
2026-04-13 18:01 41.14636 1.15753 240 ft 9 kts 251°
2026-04-13 18:01 41.14613 1.15678 241 ft 9 kts 248°
2026-04-13 18:01 41.14602 1.15604 241 ft 8 kts 292°
2026-04-13 18:01 41.14651 1.15568 241 ft 8 kts 339°
2026-04-13 18:02 41.14670 1.15558 241 ft 0 kts 339°
2026-04-13 18:02 41.14670 1.15559 241 ft 0 kts 339°